createdAt,value
2019-02-12T00:00:05.252Z,103172.34
2019-02-12T00:02:34.320Z,103169.64
2019-02-12T00:05:03.420Z,103174.12
2019-02-12T00:07:32.462Z,103174.93
2019-02-12T00:10:01.611Z,103181.56
2019-02-12T00:12:31.245Z,103180.52
2019-02-12T00:15:00.399Z,103178.51
2019-02-12T00:17:29.488Z,103179.94
2019-02-12T00:19:58.939Z,103180.38
2019-02-12T00:22:28.052Z,103178.58
2019-02-12T00:24:57.172Z,103193.59
2019-02-12T00:27:26.390Z,103189.98
2019-02-12T00:29:55.486Z,103182.69
2019-02-12T00:32:24.875Z,103187.70
2019-02-12T00:34:53.923Z,103188.34
2019-02-12T00:37:22.998Z,103188.86
2019-02-12T00:39:52.427Z,103185.80
2019-02-12T00:42:21.530Z,103187.89
2019-02-12T00:44:50.686Z,103184.38
2019-02-12T00:47:19.806Z,103179.20
2019-02-12T00:49:48.937Z,103182.24
2019-02-12T00:52:18.331Z,103184.29
2019-02-12T00:54:47.398Z,103192.39
2019-02-12T00:57:16.501Z,103193.73
2019-02-12T00:59:45.544Z,103191.61
2019-02-12T01:02:14.604Z,103190.33
2019-02-12T01:04:43.736Z,103195.20
2019-02-12T01:07:13.152Z,103184.40
2019-02-12T01:09:42.286Z,103186.09
2019-02-12T01:12:11.669Z,103188.02
2019-02-12T01:14:41.126Z,103190.70
2019-02-12T01:17:10.245Z,103189.76
2019-02-12T01:19:39.314Z,103193.25
2019-02-12T01:22:08.656Z,103195.55
2019-02-12T01:24:37.744Z,103198.62
2019-02-12T01:27:06.812Z,103191.17
2019-02-12T01:29:36.220Z,103182.84
2019-02-12T01:32:05.344Z,103186.50
2019-02-12T01:34:34.713Z,103195.39
2019-02-12T01:37:04.632Z,103193.32
2019-02-12T01:39:33.688Z,103199.49
2019-02-12T01:42:03.358Z,103202.86
2019-02-12T01:44:32.467Z,103202.58
2019-02-12T01:47:01.837Z,103204.88
2019-02-12T01:49:31.247Z,103198.80
2019-02-12T01:52:00.709Z,103199.18
2019-02-12T01:54:29.762Z,103208.02
2019-02-12T01:56:59.130Z,103208.02
2019-02-12T01:59:28.541Z,103216.27
2019-02-12T02:01:57.665Z,103216.14
2019-02-12T02:04:26.745Z,103215.72
2019-02-12T02:06:55.817Z,103210.75
2019-02-12T02:09:25.204Z,103213.27
2019-02-12T02:11:54.304Z,103205.56
2019-02-12T02:14:23.386Z,103203.74
2019-02-12T02:16:52.452Z,103204.04
2019-02-12T02:19:21.561Z,103202.98
2019-02-12T02:21:50.694Z,103199.83
2019-02-12T02:24:20.072Z,103199.66
2019-02-12T02:26:49.178Z,103199.87
2019-02-12T02:29:18.260Z,103198.98
2019-02-12T02:31:47.759Z,103191.63
2019-02-12T02:34:16.836Z,103202.42
2019-02-12T02:36:45.895Z,103203.74
2019-02-12T02:39:14.985Z,103201.11
2019-02-12T02:41:44.785Z,103199.70
2019-02-12T02:44:13.872Z,103198.05
2019-02-12T02:46:43.321Z,103201.61
2019-02-12T02:49:12.406Z,103196.73
2019-02-12T02:51:41.518Z,103201.52
2019-02-12T02:54:10.738Z,103201.78
2019-02-12T02:56:40.362Z,103207.48
2019-02-12T02:59:09.436Z,103208.45
2019-02-12T03:01:38.582Z,103210.59
2019-02-12T03:04:07.671Z,103202.03
2019-02-12T03:06:36.752Z,103199.39
2019-02-12T03:09:08.020Z,103195.95
2019-02-12T03:11:37.216Z,103184.98
2019-02-12T03:14:06.648Z,103195.62
2019-02-12T03:16:35.756Z,103190.42
2019-02-12T03:19:04.840Z,103189.66
2019-02-12T03:21:33.883Z,103180.73
2019-02-12T03:24:02.940Z,103186.61
2019-02-12T03:26:32.328Z,103186.61
2019-02-12T03:29:01.433Z,103185.16
2019-02-12T03:31:30.461Z,103182.53
2019-02-12T03:33:59.765Z,103183.25
2019-02-12T03:36:28.750Z,103184.66
2019-02-12T03:38:57.804Z,103171.82
2019-02-12T03:41:27.117Z,103172.29
2019-02-12T03:43:56.427Z,103177.56
2019-02-12T03:46:25.491Z,103174.28
2019-02-12T03:48:54.835Z,103175.13
2019-02-12T03:51:24.221Z,103182.74
2019-02-12T03:53:53.693Z,103181.84
2019-02-12T03:56:22.694Z,103192.30
2019-02-12T03:58:51.809Z,103184.17
2019-02-12T04:01:21.244Z,103190.17
2019-02-12T04:03:50.605Z,103183.73
2019-02-12T04:06:19.597Z,103176.00
2019-02-12T04:08:48.609Z,103174.77
2019-02-12T04:11:17.611Z,103186.91
2019-02-12T04:13:48.395Z,103192.56
2019-02-12T04:16:17.778Z,103184.66
2019-02-12T04:18:48.771Z,103189.33
2019-02-12T04:21:17.737Z,103196.42
2019-02-12T04:23:47.903Z,103192.47
2019-02-12T04:26:16.964Z,103199.80
2019-02-12T04:28:47.383Z,103203.53
2019-02-12T04:31:16.383Z,103204.39
2019-02-12T04:33:45.461Z,103207.88
2019-02-12T04:36:15.236Z,103204.95
2019-02-12T04:38:44.327Z,103198.20
2019-02-12T04:41:13.350Z,103201.14
2019-02-12T04:43:42.759Z,103186.98
2019-02-12T04:46:11.757Z,103196.09
2019-02-12T04:48:40.802Z,103190.39
2019-02-12T04:51:09.840Z,103197.95
2019-02-12T04:53:38.865Z,103195.32
2019-02-12T04:56:08.005Z,103197.28
2019-02-12T04:58:37.045Z,103198.55
2019-02-12T05:01:06.427Z,103197.06
2019-02-12T05:03:35.478Z,103192.38
2019-02-12T05:06:04.499Z,103184.04
2019-02-12T05:09:10.420Z,103185.30
2019-02-12T05:11:39.627Z,103179.27
2019-02-12T05:14:08.659Z,103181.25
2019-02-12T05:16:38.059Z,103172.52
2019-02-12T05:19:07.773Z,103173.94
2019-02-12T05:21:36.845Z,103163.69
2019-02-12T05:24:05.905Z,103163.42
2019-02-12T05:26:34.923Z,103164.66
2019-02-12T05:29:03.938Z,103163.94
2019-02-12T05:31:32.967Z,103165.27
2019-02-12T05:34:01.975Z,103164.17
2019-02-12T05:36:31.037Z,103169.52
2019-02-12T05:39:00.450Z,103171.00
2019-02-12T05:41:29.849Z,103172.92
2019-02-12T05:43:59.149Z,103176.41
2019-02-12T05:46:28.211Z,103175.00
2019-02-12T05:48:57.583Z,103172.33
2019-02-12T05:51:26.993Z,103173.22
2019-02-12T05:53:56.215Z,103177.77
2019-02-12T05:56:25.346Z,103175.51
2019-02-12T05:58:54.389Z,103179.05
2019-02-12T06:01:23.419Z,103185.50
2019-02-12T06:03:52.429Z,103181.63
2019-02-12T06:06:21.561Z,103175.64
2019-02-12T06:08:50.565Z,103177.92
2019-02-12T06:11:19.611Z,103173.12
2019-02-12T06:13:48.694Z,103173.67
2019-02-12T06:16:17.775Z,103181.41
2019-02-12T06:18:46.784Z,103185.66
2019-02-12T06:21:15.805Z,103190.08
2019-02-12T06:23:45.219Z,103187.22
2019-02-12T06:26:14.235Z,103192.38
2019-02-12T06:28:43.273Z,103187.62
2019-02-12T06:31:12.580Z,103197.45
2019-02-12T06:33:41.661Z,103193.20
2019-02-12T06:36:10.666Z,103188.39
2019-02-12T06:38:40.035Z,103195.06
2019-02-12T06:41:09.723Z,103202.13
2019-02-12T06:43:38.765Z,103207.39
2019-02-12T06:46:07.838Z,103211.44
2019-02-12T06:48:37.575Z,103206.67
2019-02-12T06:51:06.594Z,103215.81
2019-02-12T06:53:36.005Z,103216.45
2019-02-12T06:56:05.594Z,103215.22
2019-02-12T06:58:35.049Z,103215.94
2019-02-12T07:01:04.052Z,103217.97
2019-02-12T07:03:59.511Z,103217.16
2019-02-12T07:06:43.021Z,103222.22
2019-02-12T07:09:19.491Z,103230.55
2019-02-12T07:12:28.191Z,103236.52
2019-02-12T07:15:27.571Z,103245.31
2019-02-12T07:19:04.765Z,103245.05
2019-02-12T07:22:05.113Z,103243.73
2019-02-12T07:25:09.827Z,103247.08
2019-02-12T07:28:15.207Z,103250.53
2019-02-12T07:31:19.407Z,103250.53
2019-02-12T07:34:14.655Z,103250.48
2019-02-12T07:37:12.097Z,103259.16
2019-02-12T07:40:11.151Z,103259.14
2019-02-12T07:42:58.828Z,103259.34
2019-02-12T07:46:27.009Z,103257.16
2019-02-12T07:49:16.277Z,103260.23
2019-02-12T07:52:19.189Z,103271.14
2019-02-12T07:55:36.113Z,103274.38
2019-02-12T07:58:38.815Z,103286.13
2019-02-12T08:01:17.609Z,103281.70
2019-02-12T08:04:15.808Z,103282.50
2019-02-12T08:07:06.033Z,103290.96
2019-02-12T08:10:00.871Z,103289.70
2019-02-12T08:12:53.501Z,103300.97
2019-02-12T08:15:44.949Z,103290.80
2019-02-12T08:18:55.236Z,103286.32
2019-02-12T08:22:11.457Z,103294.72
2019-02-12T08:25:11.914Z,103299.48
2019-02-12T08:28:25.291Z,103310.23
2019-02-12T08:31:11.676Z,103310.05
2019-02-12T08:34:27.283Z,103307.17
2019-02-12T08:37:31.993Z,103310.75
2019-02-12T08:40:45.435Z,103320.75
2019-02-12T08:43:44.624Z,103325.52
2019-02-12T08:46:38.603Z,103318.81
2019-02-12T08:49:39.664Z,103310.05
2019-02-12T08:53:02.009Z,103310.80
2019-02-12T08:55:57.428Z,103307.53
2019-02-12T08:58:42.804Z,103317.27
2019-02-12T09:01:59.370Z,103311.41
2019-02-12T09:04:56.216Z,103312.16
2019-02-12T09:07:44.896Z,103316.52
2019-02-12T09:10:58.570Z,103312.30
2019-02-12T09:13:43.675Z,103313.26
2019-02-12T09:17:04.176Z,103317.55
2019-02-12T09:20:21.636Z,103317.27
2019-02-12T09:23:43.036Z,103321.31
2019-02-12T09:26:50.619Z,103321.22
2019-02-12T09:30:06.709Z,103315.30
2019-02-12T09:33:15.307Z,103320.94
2019-02-12T09:36:30.160Z,103320.08
2019-02-12T09:39:26.473Z,103323.11
2019-02-12T09:42:06.271Z,103320.12
2019-02-12T09:45:14.638Z,103315.31
2019-02-12T09:47:56.241Z,103323.77
2019-02-12T09:51:00.832Z,103320.95
2019-02-12T09:54:26.162Z,103321.25
2019-02-12T09:57:48.644Z,103326.84
2019-02-12T10:00:47.934Z,103335.83
2019-02-12T10:03:57.781Z,103327.14
2019-02-12T10:07:08.390Z,103326.05
2019-02-12T10:10:03.675Z,103333.88
2019-02-12T10:13:22.752Z,103332.59
2019-02-12T10:16:45.050Z,103332.80
2019-02-12T10:19:50.041Z,103330.30
2019-02-12T10:23:21.130Z,103339.85
2019-02-12T10:25:59.028Z,103333.08
2019-02-12T10:29:15.212Z,103326.59
2019-02-12T10:31:43.478Z,103326.64
2019-02-12T10:34:12.854Z,103322.01
2019-02-12T10:36:41.904Z,103337.36
2019-02-12T10:39:15.298Z,103340.25
2019-02-12T10:41:44.446Z,103335.98
2019-02-12T10:44:13.840Z,103346.86
2019-02-12T10:46:43.633Z,103346.55
2019-02-12T10:49:12.646Z,103344.34
2019-02-12T10:51:41.683Z,103339.51
2019-02-12T10:54:13.484Z,103339.97
2019-02-12T10:56:42.486Z,103333.66
2019-02-12T10:59:11.542Z,103338.25
2019-02-12T11:01:40.574Z,103337.20
2019-02-12T11:04:10.240Z,103331.13
2019-02-12T11:06:39.265Z,103331.75
2019-02-12T11:09:09.096Z,103325.63
2019-02-12T11:11:38.517Z,103326.79
2019-02-12T11:14:08.200Z,103324.34
2019-02-12T11:16:37.240Z,103332.26
2019-02-12T11:19:06.338Z,103319.50
2019-02-12T11:21:35.712Z,103325.25
2019-02-12T11:24:05.120Z,103322.02
2019-02-12T11:26:34.264Z,103320.88
2019-02-12T11:29:03.626Z,103310.97
2019-02-12T11:31:32.693Z,103310.33
2019-02-12T11:34:02.018Z,103312.65
2019-02-12T11:36:31.105Z,103297.15
2019-02-12T11:39:00.324Z,103307.98
2019-02-12T11:41:29.704Z,103302.62
2019-02-12T11:43:59.011Z,103303.88
2019-02-12T11:46:28.022Z,103290.39
2019-02-12T11:48:57.051Z,103292.81
2019-02-12T11:51:26.440Z,103284.89
2019-02-12T11:53:55.828Z,103287.00
2019-02-12T11:56:25.254Z,103284.46
2019-02-12T11:58:54.282Z,103280.81
2019-02-12T12:01:26.446Z,103285.22
2019-02-12T12:03:58.298Z,103282.70
2019-02-12T12:06:28.218Z,103283.41
2019-02-12T12:08:57.288Z,103276.42
2019-02-12T12:11:26.352Z,103273.73
2019-02-12T12:13:55.444Z,103287.14
2019-02-12T12:16:24.818Z,103283.43
2019-02-12T12:18:54.528Z,103287.91
2019-02-12T12:21:23.723Z,103273.19
2019-02-12T12:23:52.758Z,103275.09
2019-02-12T12:26:22.133Z,103269.81
2019-02-12T12:28:51.212Z,103272.62
2019-02-12T12:31:20.227Z,103282.52
2019-02-12T12:33:49.499Z,103285.45
2019-02-12T12:36:18.556Z,103269.59
2019-02-12T12:38:48.864Z,103263.13
2019-02-12T12:41:17.966Z,103273.21
2019-02-12T12:43:47.024Z,103267.23
2019-02-12T12:46:16.026Z,103266.18
2019-02-12T12:48:45.317Z,103262.38
2019-02-12T12:51:14.314Z,103253.17
2019-02-12T12:53:43.625Z,103257.89
2019-02-12T12:56:12.666Z,103257.91
2019-02-12T12:58:41.688Z,103263.18
2019-02-12T13:01:10.728Z,103257.81
2019-02-12T13:03:39.795Z,103255.95
2019-02-12T13:06:09.368Z,103255.96
2019-02-12T13:08:39.251Z,103256.89
2019-02-12T13:11:08.308Z,103257.11
2019-02-12T13:13:37.344Z,103255.39
2019-02-12T13:16:06.392Z,103254.89
2019-02-12T13:18:35.441Z,103252.31
2019-02-12T13:21:05.033Z,103256.17
2019-02-12T13:23:34.051Z,103251.08
2019-02-12T13:26:03.069Z,103254.94
2019-02-12T13:28:32.376Z,103253.84
2019-02-12T13:31:01.410Z,103249.28
2019-02-12T13:33:30.446Z,103248.93
2019-02-12T13:35:59.700Z,103244.46
2019-02-12T13:38:29.036Z,103251.62
2019-02-12T13:40:58.325Z,103239.28
2019-02-12T13:43:27.595Z,103243.91
2019-02-12T13:45:56.624Z,103238.73
2019-02-12T13:48:25.649Z,103235.52
2019-02-12T13:50:54.664Z,103243.98
2019-02-12T13:53:23.690Z,103248.52
2019-02-12T13:55:53.044Z,103241.66
2019-02-12T13:58:22.079Z,103241.47
2019-02-12T14:00:51.080Z,103242.90
2019-02-12T14:03:22.477Z,103248.92
2019-02-12T14:05:51.269Z,103245.97
2019-02-12T14:08:20.870Z,103246.70
2019-02-12T14:10:49.936Z,103243.42
2019-02-12T14:13:18.966Z,103243.98
2019-02-12T14:15:48.278Z,103242.66
2019-02-12T14:18:17.562Z,103249.09
2019-02-12T14:20:46.932Z,103251.53
2019-02-12T14:23:16.898Z,103251.21
2019-02-12T14:25:45.904Z,103246.98
2019-02-12T14:28:14.950Z,103240.42
2019-02-12T14:30:43.994Z,103246.98
2019-02-12T14:33:13.018Z,103246.80
2019-02-12T14:35:42.362Z,103251.45
2019-02-12T14:38:11.975Z,103253.06
2019-02-12T14:40:40.979Z,103254.97
2019-02-12T14:43:14.106Z,103254.56
2019-02-12T14:45:41.178Z,103253.89
2019-02-12T14:48:10.610Z,103252.34
2019-02-12T14:50:39.947Z,103254.06
2019-02-12T14:53:08.949Z,103253.15
2019-02-12T14:55:38.374Z,103252.91
2019-02-12T14:58:07.364Z,103260.34
2019-02-12T15:00:36.787Z,103268.67
2019-02-12T15:03:05.912Z,103267.48
2019-02-12T15:05:34.979Z,103271.52
2019-02-12T15:08:03.999Z,103271.88
2019-02-12T15:10:33.038Z,103269.53
2019-02-12T15:13:02.044Z,103273.59
2019-02-12T15:15:31.754Z,103271.39
2019-02-12T15:18:00.757Z,103265.19
2019-02-12T15:20:29.754Z,103278.57
2019-02-12T15:22:58.765Z,103267.75
2019-02-12T15:25:28.074Z,103276.22
2019-02-12T15:27:57.490Z,103284.70
2019-02-12T15:30:26.508Z,103278.35
2019-02-12T15:32:55.878Z,103270.04
2019-02-12T15:35:24.896Z,103267.09
2019-02-12T15:37:54.320Z,103266.41
2019-02-12T15:40:23.366Z,103274.06
2019-02-12T15:42:52.414Z,103277.28
2019-02-12T15:45:21.813Z,103277.73
2019-02-12T15:47:51.180Z,103284.11
2019-02-12T15:50:20.267Z,103283.94
2019-02-12T15:52:49.737Z,103272.20
2019-02-12T15:55:19.083Z,103274.55
2019-02-12T15:57:48.124Z,103272.20
2019-02-12T16:00:18.540Z,103274.14
2019-02-12T16:02:48.343Z,103266.41
2019-02-12T16:05:17.371Z,103265.53
2019-02-12T16:07:47.760Z,103265.53
2019-02-12T16:10:19.698Z,103261.03
2019-02-12T16:12:51.471Z,103274.38
2019-02-12T16:15:23.893Z,103279.36
2019-02-12T16:17:51.936Z,103281.67
2019-02-12T16:20:20.965Z,103281.18
2019-02-12T16:22:50.263Z,103280.01
2019-02-12T16:25:19.388Z,103285.20
2019-02-12T16:27:50.976Z,103290.89
2019-02-12T16:30:20.335Z,103284.18
2019-02-12T16:32:49.357Z,103292.35
2019-02-12T16:35:18.911Z,103292.42
2019-02-12T16:37:47.926Z,103291.57
2019-02-12T16:40:17.029Z,103298.89
2019-02-12T16:42:46.328Z,103291.37
2019-02-12T16:45:30.778Z,103290.05
2019-02-12T16:48:00.301Z,103292.75
2019-02-12T16:50:29.456Z,103291.81
2019-02-12T16:52:58.602Z,103294.88
2019-02-12T16:55:27.624Z,103293.12
2019-02-12T16:57:56.664Z,103285.91
2019-02-12T17:00:25.966Z,103292.55
2019-02-12T17:02:55.049Z,103297.91
2019-02-12T17:05:24.090Z,103301.27
2019-02-12T17:07:53.178Z,103294.44
2019-02-12T17:10:22.276Z,103292.67
2019-02-12T17:12:51.309Z,103300.62
2019-02-12T17:15:20.406Z,103299.16
2019-02-12T17:17:49.719Z,103299.45
2019-02-12T17:20:19.075Z,103296.51
2019-02-12T17:22:48.110Z,103302.14
2019-02-12T17:25:17.534Z,103296.53
2019-02-12T17:27:48.009Z,103305.75
2019-02-12T17:30:17.358Z,103312.38
2019-02-12T17:32:46.564Z,103314.47
2019-02-12T17:35:16.001Z,103322.62
2019-02-12T17:37:45.370Z,103320.11
2019-02-12T17:40:14.501Z,103323.76
2019-02-12T17:42:43.822Z,103322.86
2019-02-12T17:45:14.079Z,103324.20
2019-02-12T17:47:43.168Z,103326.14
2019-02-12T17:50:12.722Z,103316.66
2019-02-12T17:52:41.831Z,103317.63
2019-02-12T17:55:11.300Z,103319.81
2019-02-12T17:57:40.618Z,103325.31
2019-02-12T18:00:14.970Z,103322.73
2019-02-12T18:02:44.004Z,103319.07
2019-02-12T18:05:13.791Z,103324.98
2019-02-12T18:07:42.826Z,103328.35
2019-02-12T18:10:12.434Z,103327.36
2019-02-12T18:12:41.539Z,103331.78
2019-02-12T18:15:11.154Z,103327.16
2019-02-12T18:17:40.236Z,103331.26
2019-02-12T18:20:10.341Z,103328.03
2019-02-12T18:22:39.356Z,103334.76
2019-02-12T18:25:09.258Z,103330.77
2019-02-12T18:27:38.325Z,103329.42
2019-02-12T18:30:09.660Z,103331.92
2019-02-12T18:32:38.846Z,103335.36
2019-02-12T18:35:08.198Z,103331.70
2019-02-12T18:37:37.925Z,103331.10
2019-02-12T18:40:07.541Z,103332.13
2019-02-12T18:42:36.842Z,103334.19
2019-02-12T18:45:06.516Z,103331.75
2019-02-12T18:47:35.594Z,103340.59
2019-02-12T18:50:05.888Z,103343.20
2019-02-12T18:52:35.047Z,103351.20
2019-02-12T18:55:04.909Z,103349.39
2019-02-12T18:57:34.208Z,103352.37
2019-02-12T19:00:03.737Z,103349.05
2019-02-12T19:02:32.864Z,103347.06
2019-02-12T19:05:02.305Z,103350.22
2019-02-12T19:07:31.374Z,103349.36
2019-02-12T19:10:00.592Z,103351.23
2019-02-12T19:12:29.864Z,103351.23
2019-02-12T19:14:59.347Z,103361.64
2019-02-12T19:17:28.437Z,103359.54
2019-02-12T19:19:57.491Z,103372.80
2019-02-12T19:22:27.628Z,103357.86
2019-02-12T19:24:56.640Z,103361.08
2019-02-12T19:27:26.046Z,103365.91
2019-02-12T19:29:55.070Z,103368.58
2019-02-12T19:32:24.381Z,103371.14
2019-02-12T19:34:53.677Z,103372.75
2019-02-12T19:37:23.938Z,103374.30
2019-02-12T19:39:53.126Z,103376.56
2019-02-12T19:42:22.671Z,103373.70
2019-02-12T19:44:52.115Z,103378.95
2019-02-12T19:47:21.598Z,103378.38
2019-02-12T19:49:50.707Z,103375.87
2019-02-12T19:52:20.136Z,103375.51
2019-02-12T19:54:49.245Z,103375.72
2019-02-12T19:57:18.301Z,103374.95
2019-02-12T19:59:47.396Z,103375.77
2019-02-12T20:02:16.824Z,103372.00
2019-02-12T20:04:46.181Z,103378.69
2019-02-12T20:07:15.226Z,103372.00
2019-02-12T20:09:44.591Z,103368.23
2019-02-12T20:12:13.691Z,103369.84
2019-02-12T20:14:42.734Z,103368.99
2019-02-12T20:17:11.775Z,103368.30
2019-02-12T20:19:41.103Z,103370.81
2019-02-12T20:22:10.138Z,103379.38
2019-02-12T20:24:39.184Z,103371.02
2019-02-12T20:27:08.973Z,103366.06
2019-02-12T20:29:38.277Z,103368.23
2019-02-12T20:32:07.328Z,103354.17
2019-02-12T20:34:36.465Z,103361.87
2019-02-12T20:37:05.510Z,103361.73
2019-02-12T20:39:34.962Z,103360.77
2019-02-12T20:42:04.379Z,103360.97
2019-02-12T20:44:33.765Z,103364.69
2019-02-12T20:47:03.177Z,103366.08
2019-02-12T20:49:32.388Z,103370.48
2019-02-12T20:52:01.423Z,103367.95
2019-02-12T20:54:30.771Z,103372.86
2019-02-12T20:56:59.827Z,103377.43
2019-02-12T20:59:29.182Z,103379.28
2019-02-12T21:01:58.642Z,103380.15
2019-02-12T21:04:27.713Z,103376.23
2019-02-12T21:06:56.721Z,103382.05
2019-02-12T21:09:26.248Z,103378.13
2019-02-12T21:11:55.254Z,103376.69
2019-02-12T21:14:24.318Z,103372.31
2019-02-12T21:16:53.343Z,103375.14
2019-02-12T21:19:22.363Z,103379.57
2019-02-12T21:21:51.668Z,103376.27
2019-02-12T21:24:21.089Z,103373.00
2019-02-12T21:26:50.092Z,103372.75
2019-02-12T21:29:19.144Z,103377.59
2019-02-12T21:31:48.695Z,103385.23
2019-02-12T21:34:17.709Z,103381.50
2019-02-12T21:36:46.799Z,103382.94
2019-02-12T21:39:17.804Z,103380.28
2019-02-12T21:41:46.837Z,103375.34
2019-02-12T21:44:16.438Z,103381.50
2019-02-12T21:46:45.468Z,103379.66
2019-02-12T21:49:14.535Z,103383.89
2019-02-12T21:51:43.582Z,103383.23
2019-02-12T21:54:12.639Z,103383.76
2019-02-12T21:56:42.060Z,103383.89
2019-02-12T21:59:11.111Z,103388.02
2019-02-12T22:01:40.110Z,103392.28
2019-02-12T22:04:09.460Z,103387.45
2019-02-12T22:06:39.064Z,103384.80
2019-02-12T22:09:08.387Z,103391.12
2019-02-12T22:11:37.940Z,103389.48
2019-02-12T22:14:07.031Z,103404.41
2019-02-12T22:16:36.360Z,103399.27
2019-02-12T22:19:05.474Z,103396.08
2019-02-12T22:21:34.496Z,103397.18
2019-02-12T22:24:03.557Z,103394.94
2019-02-12T22:26:32.873Z,103404.64
2019-02-12T22:29:01.943Z,103405.36
2019-02-12T22:31:30.946Z,103403.78
2019-02-12T22:34:00.337Z,103400.94
2019-02-12T22:36:29.361Z,103401.13
2019-02-12T22:38:58.566Z,103401.98
2019-02-12T22:41:27.610Z,103404.32
2019-02-12T22:43:56.669Z,103416.17
2019-02-12T22:46:25.777Z,103404.57
2019-02-12T22:48:55.185Z,103406.36
2019-02-12T22:51:24.581Z,103401.14
2019-02-12T22:53:54.346Z,103396.69
2019-02-12T22:56:23.735Z,103401.58
2019-02-12T22:58:52.772Z,103399.48
2019-02-12T23:01:32.591Z,103402.64
2019-02-12T23:04:01.612Z,103403.97
2019-02-12T23:06:31.115Z,103412.59
2019-02-12T23:09:00.527Z,103412.21
2019-02-12T23:11:29.890Z,103407.95
2019-02-12T23:13:58.970Z,103407.57
2019-02-12T23:16:28.003Z,103422.02
2019-02-12T23:18:57.808Z,103419.35
2019-02-12T23:21:26.897Z,103417.64
2019-02-12T23:23:55.895Z,103427.64
2019-02-12T23:26:25.343Z,103423.48
2019-02-12T23:28:54.397Z,103433.41
2019-02-12T23:31:23.811Z,103430.98
2019-02-12T23:33:52.872Z,103435.38
2019-02-12T23:36:21.917Z,103430.14
2019-02-12T23:38:50.921Z,103441.36
2019-02-12T23:41:20.010Z,103440.97
2019-02-12T23:43:49.029Z,103445.33
2019-02-12T23:46:18.053Z,103448.10
2019-02-12T23:48:48.583Z,103457.08
2019-02-12T23:51:17.663Z,103463.91
2019-02-12T23:53:46.791Z,103453.30
2019-02-12T23:56:15.818Z,103451.30
2019-02-12T23:58:45.157Z,103463.80
